CheckWX is a tool to help pilots better visualize weather data.  It is not intended as a substitute for an official pre-flight weather briefing.

10:22:12 UTC

DAUH METAR
Oued Irara Airport
Hassi Messaoud, Algeria
Current

22 mins ago

DAUH 261000Z 14008KT 9999 FEW040 SCT100 24/02 Q1016
Observed
Mar-26 @ 10:00 UTC
Wind
  • 140° at 8 KTS
Visibility
10,000+ meters
Flight Rules
VFR
Cloud Levels
  • Few at 4,000' AGL
  • Scattered at 10,000' AGL
Temperature
24°C / 75°F
Dewpoint
C / 36°F
Humidity
24%
Altimeter
30" Hg
Pressure
1015.92 hPa
Previous

52 mins ago

DAUH 260930Z 14009KT 9999 SCT040 SCT100 23/02 Q1017
Observed
Mar-26 @ 09:30 UTC
Wind
  • 140° at 9 KTS
Visibility
10,000+ meters
Flight Rules
VFR
Cloud Levels
  • Scattered at 4,000' AGL
  • Scattered at 10,000' AGL
Temperature
23°C / 73°F
Dewpoint
C / 36°F
Humidity
25%
Altimeter
30.03" Hg
Pressure
1016.92 hPa
Previous

1 hour ago

DAUH 260900Z 15009KT 9999 SCT040 SCT100 22/02 Q1017
Observed
Mar-26 @ 09:00 UTC
Wind
  • 150° at 9 KTS
Visibility
10,000+ meters
Flight Rules
VFR
Cloud Levels
  • Scattered at 4,000' AGL
  • Scattered at 10,000' AGL
Temperature
22°C / 72°F
Dewpoint
C / 36°F
Humidity
27%
Altimeter
30.03" Hg
Pressure
1016.92 hPa